Terminal Aerodrome Forecast
Issued by NWS

Home | Current Version | Previous Version | Graphics & Text | Print | Product List | Glossary On
Versions: 1 2 3 4 5 6 7 8 9 10 11 12 13 14
000
FTUS43 KBIS 022333
TAFJMS
TAF
KJMS 022333Z 0300/0324 20017G24KT P6SM SCT120
     FM030100 24011KT P6SM SCT120 BKN150
     FM030500 29005KT P6SM BKN150
     FM031000 34014KT P6SM BKN110
     FM031500 33017G23KT P6SM SCT180=

USA.gov is the U.S. government's official web portal to all federal, state and local government web resources and services.